This is the latest recevied weather packets stored in our database for station/object CE3JSG-13. If no packets are shown the sender has not sent any weather packets the latest 10 day(s).
| Time | Temp. | Humidity | Pressure | Rain* | Wind** | Luminosity | Snow |
|---|---|---|---|---|---|---|---|
| 1777676536 | 15.56° C | 80% | 1020.8 hPa | - | - | - | - |
| 1777676115 | 16.11° C | 79% | 1020.9 hPa | - | - | - | - |
| 1777675695 | 16.11° C | 78% | 1021 hPa | - | - | - | - |
| 1777675276 | 16.11° C | 77% | 1021.2 hPa | - | - | - | - |
| 1777674856 | 16.67° C | 75% | 1020.6 hPa | - | - | - | - |
| 1777674437 | 16.67° C | 74% | 1021 hPa | - | - | - | - |
| 1777674016 | 16.67° C | 72% | 1021 hPa | - | - | - | - |
| 1777673595 | 17.22° C | 72% | 1020.9 hPa | - | - | - | - |
| 1777673176 | 17.22° C | 70% | 1020.7 hPa | - | - | - | - |
| 1777672755 | 17.78° C | 69% | 1020.7 hPa | - | - | - | - |
| 1777672335 | 17.78° C | 67% | 1020.6 hPa | - | - | - | - |
| 1777671915 | 18.33° C | 67% | 1020.4 hPa | - | - | - | - |
| 1777671495 | 18.33° C | 67% | 1020.7 hPa | - | - | - | - |
| 1777671075 | 18.33° C | 65% | 1021.2 hPa | - | - | - | - |
| 1777670655 | 18.89° C | 63% | 1019.6 hPa | - | - | - | - |
| 1777670236 | 18.33° C | 65% | 1020.7 hPa | - | - | - | - |
| 1777669816 | 18.89° C | 64% | 1020.5 hPa | - | - | - | - |
| 1777669395 | 18.89° C | 63% | 1020.6 hPa | - | - | - | - |
| 1777668975 | 18.89° C | 63% | 1020.9 hPa | - | - | - | - |
| 1777668555 | 18.89° C | 62% | 1020.9 hPa | - | - | - | - |
| 1777668136 | 19.44° C | 61% | 1021 hPa | - | - | - | - |
| 1777667715 | 19.44° C | 60% | 1019.5 hPa | - | - | - | - |
| 1777667295 | 19.44° C | 61% | 1021.9 hPa | - | - | - | - |
| 1777666876 | 20° C | 58% | 1017.6 hPa | - | - | - | - |
| 1777666456 | 18.89° C | 61% | 1020.8 hPa | - | - | - | - |
* Rain since midnight (hover to see other rain measurements)
** Current wind speed in m/s (hover to see current wind gust speed)